Terminal Aerodrome Forecast
Issued by NWS Bismarck, ND

Home | Current Version | Previous Version | Text Only | Print | Product List | Glossary On
Versions: 1 2 3 4 5 6 7 8 9 10 11 12 13 14 15 16 17 18 19
000
FTUS43 KBIS 262331
TAFBIS
TAF
KBIS 262331Z 2700/2724 03012KT P6SM OVC035
     FM270300 04008KT P6SM OVC025
     FM271200 36004KT P6SM BKN025
     FM271400 01006KT P6SM SCT025
     FM271800 01007KT P6SM FEW140=

USA.gov is the U.S. government's official web portal to all federal, state and local government web resources and services.